createdAt,value
2023-02-16T00:01:06.152Z,2.27
2023-02-16T00:05:26.747Z,2.25
2023-02-16T00:09:27.909Z,2.14
2023-02-16T00:13:45.108Z,2.18
2023-02-16T00:17:45.720Z,2.00
2023-02-16T00:21:49.113Z,2.18
2023-02-16T00:25:49.577Z,2.17
2023-02-16T00:29:49.879Z,2.05
2023-02-16T00:33:51.286Z,2.36
2023-02-16T00:37:56.314Z,2.09
2023-02-16T00:42:00.685Z,2.09
2023-02-16T00:46:01.162Z,1.85
2023-02-16T00:50:04.338Z,1.81
2023-02-16T00:54:07.725Z,1.76
2023-02-16T00:58:18.214Z,1.84
2023-02-16T01:02:19.180Z,1.68
2023-02-16T01:06:31.849Z,1.72
2023-02-16T01:10:48.383Z,1.65
2023-02-16T01:14:54.160Z,1.82
2023-02-16T01:18:57.330Z,1.64
2023-02-16T01:22:57.881Z,1.73
2023-02-16T01:27:01.008Z,1.75
2023-02-16T01:31:01.452Z,1.89
2023-02-16T01:35:02.004Z,1.73
2023-02-16T01:39:03.949Z,1.65
2023-02-16T01:43:20.252Z,1.62
2023-02-16T01:47:43.118Z,1.60
2023-02-16T01:51:58.615Z,1.53
2023-02-16T01:56:07.415Z,1.74
2023-02-16T02:00:26.985Z,1.70
2023-02-16T02:04:48.861Z,1.77
2023-02-16T02:08:54.822Z,1.56
2023-02-16T02:13:04.417Z,1.75
2023-02-16T02:17:12.663Z,1.72
2023-02-16T02:21:55.636Z,1.75
2023-02-16T02:26:47.101Z,1.88
2023-02-16T02:31:06.144Z,2.01
2023-02-16T02:35:31.941Z,2.06
2023-02-16T02:39:48.286Z,2.10
2023-02-16T02:43:57.429Z,2.01
2023-02-16T02:48:02.291Z,1.84
2023-02-16T02:52:03.492Z,2.03
2023-02-16T02:56:18.660Z,1.83
2023-02-16T03:00:39.613Z,1.48
2023-02-16T03:04:44.088Z,1.42
2023-02-16T03:08:57.825Z,1.25
2023-02-16T03:12:57.894Z,1.34
2023-02-16T03:17:14.935Z,1.30
2023-02-16T03:21:31.655Z,1.20
2023-02-16T03:25:49.948Z,1.30
2023-02-16T03:29:54.788Z,1.42
2023-02-16T03:33:56.238Z,1.28
2023-02-16T03:37:59.258Z,1.26
2023-02-16T03:42:01.721Z,1.17
2023-02-16T03:46:02.274Z,0.96
2023-02-16T03:50:02.683Z,1.27
2023-02-16T03:54:05.822Z,1.17
2023-02-16T03:58:07.217Z,1.25
2023-02-16T04:02:07.868Z,1.08
2023-02-16T04:06:09.129Z,1.23
2023-02-16T04:10:13.595Z,1.06
2023-02-16T04:14:14.080Z,1.15
2023-02-16T04:18:14.549Z,1.20
2023-02-16T04:22:15.060Z,0.97
2023-02-16T04:26:18.518Z,1.01
2023-02-16T04:30:22.456Z,1.06
2023-02-16T04:34:23.150Z,1.18
2023-02-16T04:38:23.677Z,1.26
2023-02-16T04:42:29.254Z,1.32
2023-02-16T04:46:30.634Z,1.49
2023-02-16T04:50:31.846Z,1.28
2023-02-16T04:54:32.658Z,1.28
2023-02-16T04:58:35.982Z,1.28
2023-02-16T05:02:36.656Z,1.13
2023-02-16T05:06:37.077Z,1.21
2023-02-16T05:10:37.683Z,1.29
2023-02-16T05:14:45.903Z,1.47
2023-02-16T05:18:46.657Z,1.41
2023-02-16T05:22:47.056Z,1.31
2023-02-16T05:26:47.912Z,1.39
2023-02-16T05:30:51.543Z,1.42
2023-02-16T05:34:51.767Z,1.54
2023-02-16T05:38:52.569Z,1.58
2023-02-16T05:42:56.389Z,1.39
2023-02-16T05:46:59.820Z,1.27
2023-02-16T05:51:00.038Z,1.48
2023-02-16T05:55:00.377Z,1.60
2023-02-16T05:59:03.741Z,1.52
2023-02-16T06:03:07.042Z,1.59
2023-02-16T06:07:08.458Z,1.62
2023-02-16T06:11:30.917Z,1.70
2023-02-16T06:15:32.170Z,1.55
2023-02-16T06:19:38.051Z,1.33
2023-02-16T06:23:38.926Z,1.52
2023-02-16T06:27:39.378Z,1.63
2023-02-16T06:31:43.250Z,1.63
2023-02-16T06:35:47.202Z,1.52
2023-02-16T06:39:48.137Z,1.53
2023-02-16T06:43:48.607Z,1.38
2023-02-16T06:47:49.476Z,1.50
2023-02-16T06:51:53.247Z,1.47
2023-02-16T06:55:55.168Z,1.45
2023-02-16T06:59:56.481Z,1.71
2023-02-16T07:03:59.893Z,1.84
2023-02-16T07:08:02.880Z,1.85
2023-02-16T07:12:03.135Z,1.72
2023-02-16T07:16:03.359Z,1.83
2023-02-16T07:20:04.467Z,2.02
2023-02-16T07:24:08.376Z,2.19
2023-02-16T07:28:09.830Z,2.25
2023-02-16T07:32:10.673Z,2.20
2023-02-16T07:36:13.486Z,2.27
2023-02-16T07:40:17.462Z,2.45
2023-02-16T07:44:18.045Z,2.45
2023-02-16T07:48:20.265Z,2.53
2023-02-16T07:52:20.509Z,2.65
2023-02-16T07:56:29.730Z,2.61
2023-02-16T08:00:30.355Z,2.77
2023-02-16T08:04:30.832Z,3.10
2023-02-16T08:08:32.080Z,3.36
2023-02-16T08:12:37.893Z,3.36
2023-02-16T08:16:38.439Z,3.32
2023-02-16T08:20:57.705Z,3.53
2023-02-16T08:25:00.219Z,3.46
2023-02-16T08:29:03.905Z,3.54
2023-02-16T08:33:04.425Z,3.22
2023-02-16T08:37:04.843Z,3.66
2023-02-16T08:41:05.661Z,3.88
2023-02-16T08:45:10.118Z,3.89
2023-02-16T08:49:12.251Z,3.77
2023-02-16T08:53:12.576Z,4.09
2023-02-16T08:57:13.551Z,4.17
2023-02-16T09:01:18.422Z,4.67
2023-02-16T09:05:19.268Z,5.33
2023-02-16T09:09:20.788Z,5.01
2023-02-16T09:13:21.064Z,5.46
2023-02-16T09:17:23.958Z,5.40
2023-02-16T09:21:28.780Z,5.20
2023-02-16T09:25:29.078Z,4.96
2023-02-16T09:29:29.545Z,4.83
2023-02-16T09:33:32.723Z,5.16
2023-02-16T09:37:33.181Z,5.08
2023-02-16T09:41:58.198Z,5.55
2023-02-16T09:46:01.232Z,6.17
2023-02-16T09:50:15.721Z,6.00
2023-02-16T09:54:43.964Z,6.11
2023-02-16T09:58:51.802Z,6.59
2023-02-16T10:02:58.293Z,7.33
2023-02-16T10:07:20.592Z,7.99
2023-02-16T10:11:46.907Z,8.00
2023-02-16T10:15:49.855Z,8.06
2023-02-16T10:19:55.952Z,8.17
2023-02-16T10:24:05.848Z,8.44
2023-02-16T10:28:22.774Z,9.40
2023-02-16T10:32:31.013Z,9.75
2023-02-16T10:36:44.182Z,10.10
2023-02-16T10:41:02.576Z,10.14
2023-02-16T10:45:18.245Z,11.09
2023-02-16T10:49:21.187Z,10.82
2023-02-16T10:53:32.353Z,10.83
2023-02-16T10:57:37.806Z,11.14
2023-02-16T11:01:42.622Z,11.24
2023-02-16T11:05:45.381Z,11.73
2023-02-16T11:09:49.672Z,12.49
2023-02-16T11:14:02.846Z,12.43
2023-02-16T11:18:09.496Z,12.56
2023-02-16T11:22:26.900Z,12.38
2023-02-16T11:26:30.545Z,12.52
2023-02-16T11:30:41.701Z,13.36
2023-02-16T11:34:49.106Z,13.54
2023-02-16T11:39:01.954Z,14.13
2023-02-16T11:43:06.124Z,13.99
2023-02-16T11:47:24.387Z,14.06
2023-02-16T11:51:37.606Z,14.98
2023-02-16T11:55:43.293Z,14.72
2023-02-16T11:59:43.976Z,14.88
2023-02-16T12:04:29.176Z,15.51
2023-02-16T12:08:52.242Z,14.87
2023-02-16T12:13:07.219Z,15.35
2023-02-16T12:17:29.295Z,15.82
2023-02-16T12:21:45.432Z,16.83
2023-02-16T12:26:03.780Z,16.88
2023-02-16T12:30:23.803Z,17.52
2023-02-16T12:34:39.757Z,18.08
2023-02-16T12:38:59.005Z,18.34
2023-02-16T12:43:36.456Z,17.63
2023-02-16T12:47:44.467Z,17.38
2023-02-16T12:51:53.532Z,16.66
2023-02-16T12:56:03.508Z,15.96
2023-02-16T13:00:20.846Z,15.24
2023-02-16T13:04:29.552Z,14.84
2023-02-16T13:08:40.208Z,14.94
2023-02-16T13:12:53.251Z,14.16
2023-02-16T13:17:00.589Z,14.49
2023-02-16T13:21:11.186Z,14.44
2023-02-16T13:25:51.340Z,14.34
2023-02-16T13:30:43.993Z,15.16
2023-02-16T13:35:48.125Z,14.51
2023-02-16T13:40:27.711Z,14.17
2023-02-16T13:44:35.253Z,14.59
2023-02-16T13:48:50.142Z,14.24
2023-02-16T13:52:52.614Z,13.99
2023-02-16T13:56:53.317Z,14.91
2023-02-16T14:00:53.891Z,14.97
2023-02-16T14:05:13.873Z,14.73
2023-02-16T14:09:49.778Z,13.69
2023-02-16T14:13:53.701Z,13.77
2023-02-16T14:17:56.923Z,14.02
2023-02-16T14:21:59.969Z,12.88
2023-02-16T14:26:07.317Z,12.02
2023-02-16T14:30:21.986Z,11.18
2023-02-16T14:34:30.893Z,10.99
2023-02-16T14:38:38.654Z,11.19
2023-02-16T14:42:40.091Z,10.99
2023-02-16T14:46:55.370Z,11.08
2023-02-16T14:51:31.829Z,11.18
2023-02-16T14:56:28.471Z,11.47
2023-02-16T15:00:39.838Z,11.44
2023-02-16T15:04:41.124Z,11.36
2023-02-16T15:08:49.495Z,10.77
2023-02-16T15:12:52.557Z,11.05
2023-02-16T15:16:54.626Z,11.15
2023-02-16T15:21:00.854Z,11.02
2023-02-16T15:25:04.319Z,10.62
2023-02-16T15:29:27.089Z,9.55
2023-02-16T15:33:38.428Z,8.59
2023-02-16T15:37:40.626Z,8.06
2023-02-16T15:41:46.107Z,7.46
2023-02-16T15:45:53.213Z,7.31
2023-02-16T15:49:55.321Z,7.30
2023-02-16T15:53:59.386Z,7.17
2023-02-16T15:58:01.969Z,6.82
2023-02-16T16:02:16.413Z,6.63
2023-02-16T16:06:17.504Z,6.38
2023-02-16T16:10:24.975Z,6.49
2023-02-16T16:14:27.985Z,6.65
2023-02-16T16:18:59.160Z,6.60
2023-02-16T16:23:02.831Z,6.62
2023-02-16T16:27:08.658Z,6.61
2023-02-16T16:31:15.090Z,6.43
2023-02-16T16:35:40.142Z,6.42
2023-02-16T16:39:43.796Z,6.02
2023-02-16T16:43:57.990Z,5.87
2023-02-16T16:47:59.105Z,6.12
2023-02-16T16:52:04.159Z,6.03
2023-02-16T16:56:06.525Z,6.11
2023-02-16T17:00:13.296Z,5.99
2023-02-16T17:04:13.677Z,6.10
2023-02-16T17:08:16.722Z,5.91
2023-02-16T17:12:17.268Z,5.73
2023-02-16T17:16:26.753Z,5.57
2023-02-16T17:20:27.701Z,5.35
2023-02-16T17:24:31.004Z,5.08
2023-02-16T17:28:36.743Z,5.27
2023-02-16T17:32:38.409Z,5.46
2023-02-16T17:36:40.490Z,5.50
2023-02-16T17:40:45.099Z,5.39
2023-02-16T17:44:46.045Z,5.46
2023-02-16T17:48:46.719Z,5.49
2023-02-16T17:52:48.407Z,5.50
2023-02-16T17:56:51.995Z,5.30
2023-02-16T18:00:52.800Z,5.30
2023-02-16T18:04:54.446Z,5.46
2023-02-16T18:08:57.033Z,5.43
2023-02-16T18:12:59.951Z,5.39
2023-02-16T18:17:02.195Z,5.33
2023-02-16T18:21:03.083Z,5.14
2023-02-16T18:25:03.696Z,5.04
2023-02-16T18:29:10.449Z,5.08
2023-02-16T18:33:11.425Z,5.04
2023-02-16T18:37:15.074Z,5.07
2023-02-16T18:41:16.404Z,5.16
2023-02-16T18:45:22.466Z,5.16
2023-02-16T18:49:23.325Z,5.28
2023-02-16T18:53:24.125Z,5.05
2023-02-16T18:57:24.627Z,5.20
2023-02-16T19:01:43.500Z,5.24
2023-02-16T19:05:46.364Z,5.10
2023-02-16T19:09:46.877Z,5.19
2023-02-16T19:13:49.136Z,5.34
2023-02-16T19:17:57.077Z,5.40
2023-02-16T19:21:58.193Z,5.21
2023-02-16T19:25:59.021Z,5.26
2023-02-16T19:30:00.059Z,5.21
2023-02-16T19:34:03.694Z,5.13
2023-02-16T19:38:04.231Z,5.39
2023-02-16T19:42:05.047Z,5.47
2023-02-16T19:46:05.874Z,5.44
2023-02-16T19:50:12.908Z,5.41
2023-02-16T19:54:14.306Z,5.40
2023-02-16T19:58:16.128Z,5.39
2023-02-16T20:02:18.605Z,5.37
2023-02-16T20:06:24.552Z,5.58
2023-02-16T20:10:25.579Z,5.61
2023-02-16T20:14:25.938Z,5.65
2023-02-16T20:18:26.492Z,5.49
2023-02-16T20:22:30.948Z,5.51
2023-02-16T20:26:34.708Z,5.27
2023-02-16T20:30:35.051Z,5.25
2023-02-16T20:34:35.733Z,5.37
2023-02-16T20:38:39.398Z,5.09
2023-02-16T20:42:41.113Z,5.21
2023-02-16T20:46:42.965Z,5.24
2023-02-16T20:50:43.745Z,5.32
2023-02-16T20:54:46.890Z,5.35
2023-02-16T20:58:49.724Z,5.43
2023-02-16T21:02:50.253Z,5.34
2023-02-16T21:06:51.117Z,5.08
2023-02-16T21:10:54.513Z,5.20
2023-02-16T21:14:54.819Z,5.08
2023-02-16T21:18:57.753Z,5.32
2023-02-16T21:22:58.141Z,5.37
2023-02-16T21:27:01.609Z,5.40
2023-02-16T21:31:15.546Z,5.35
2023-02-16T21:35:16.105Z,5.29
2023-02-16T21:39:16.717Z,5.34
2023-02-16T21:43:20.114Z,5.36
2023-02-16T21:47:33.132Z,5.40
2023-02-16T21:51:37.676Z,5.34
2023-02-16T21:55:52.804Z,5.39
2023-02-16T21:59:57.759Z,5.45
2023-02-16T22:04:00.489Z,5.25
2023-02-16T22:08:01.505Z,5.36
2023-02-16T22:12:01.975Z,5.41
2023-02-16T22:16:14.967Z,5.44
2023-02-16T22:20:16.526Z,5.29
2023-02-16T22:24:20.098Z,5.32
2023-02-16T22:28:20.694Z,5.33
2023-02-16T22:32:23.891Z,5.18
2023-02-16T22:36:24.406Z,5.17
2023-02-16T22:40:25.182Z,5.17
2023-02-16T22:44:28.418Z,5.25
2023-02-16T22:48:31.779Z,5.27
2023-02-16T22:52:32.656Z,5.27
2023-02-16T22:56:35.354Z,5.38
2023-02-16T23:00:35.597Z,5.41
2023-02-16T23:04:38.619Z,5.41
2023-02-16T23:08:40.678Z,5.50
2023-02-16T23:12:41.443Z,5.47
2023-02-16T23:16:41.998Z,5.34
2023-02-16T23:20:45.425Z,5.36
2023-02-16T23:25:06.158Z,5.65
2023-02-16T23:29:07.470Z,5.54
2023-02-16T23:33:07.751Z,5.35
2023-02-16T23:37:10.850Z,4.89
2023-02-16T23:41:19.404Z,4.83
2023-02-16T23:45:20.131Z,4.64
2023-02-16T23:49:20.528Z,4.52
2023-02-16T23:53:27.994Z,4.28
2023-02-16T23:57:28.330Z,4.18
